Time;durP1;ratioP1;P1;durP2;ratioP2;P2;SDS_P1;SDS_P2;PMS_P1;PMS_P2;Temp;Humidity;BMP_temperature;BMP_pressure;BME280_temperature;BME280_humidity;BME280_pressure;Samples;Min_cycle;Max_cycle;Signal;HPM_P1;HPM_P2
2022/04/14 00:02:22;;;;;;;5.75;2.10;;;;;;;;;;5092784;28;20028;-78
2022/04/14 00:04:48;;;;;;;0.00;0.00;;;;;;;;;;5082868;28;20028;-79
2022/04/14 00:07:15;;;;;;;0.08;0.08;;;;;;;;;;5087148;28;20020;-81
2022/04/14 00:09:41;;;;;;;0.00;0.00;;;;;;;;;;5107674;28;20020;-79
2022/04/14 00:12:08;;;;;;;2.10;2.00;;;;;;;;;;5109319;28;20608;-79
2022/04/14 00:14:34;;;;;;;0.00;0.00;;;;;;;;;;5104358;28;20059;-79
2022/04/14 00:17:01;;;;;;;0.70;0.70;;;;;;;;;;5103143;28;20544;-78
2022/04/14 00:19:27;;;;;;;0.20;0.20;;;;;;;;;;5080679;28;20035;-80
2022/04/14 00:21:53;;;;;;;0.28;0.20;;;;;;;;;;5107785;28;20307;-79
2022/04/14 00:24:20;;;;;;;1.17;0.43;;;;;;;;;;5100979;28;20039;-82
2022/04/14 00:26:46;;;;;;;1.65;1.55;;;;;;;;;;5108222;28;20019;-79
2022/04/14 00:29:12;;;;;;;0.00;0.00;;;;;;;;;;5099588;28;20030;-82
2022/04/14 00:31:39;;;;;;;0.15;0.10;;;;;;;;;;5088173;28;20096;-81
2022/04/14 00:34:05;;;;;;;0.00;0.00;;;;;;;;;;5096245;28;20034;-79
2022/04/14 00:36:33;;;;;;;0.00;0.00;;;;;;;;;;5111150;28;20027;-78
2022/04/14 00:38:59;;;;;;;0.00;0.00;;;;;;;;;;5112173;28;20050;-82
2022/04/14 00:41:27;;;;;;;0.20;0.15;;;;;;;;;;5112275;28;20028;-81
2022/04/14 00:43:53;;;;;;;0.00;0.00;;;;;;;;;;5079109;28;20174;-79
2022/04/14 00:46:20;;;;;;;0.13;0.10;;;;;;;;;;5100263;28;20019;-81
2022/04/14 00:48:47;;;;;;;1.10;0.55;;;;;;;;;;5109897;28;20023;-81
2022/04/14 00:51:13;;;;;;;0.20;0.20;;;;;;;;;;5088775;28;20034;-79
2022/04/14 00:53:40;;;;;;;0.63;0.47;;;;;;;;;;5107321;28;20053;-82
2022/04/14 00:56:07;;;;;;;0.40;0.40;;;;;;;;;;5114492;28;20026;-79
2022/04/14 00:58:37;;;;;;;1.02;0.68;;;;;;;;;;5103691;28;20024;-81
2022/04/14 01:01:07;;;;;;;0.38;0.38;;;;;;;;;;5099228;28;20067;-80
2022/04/14 01:03:34;;;;;;;0.00;0.00;;;;;;;;;;5072541;28;20363;-80
2022/04/14 01:06:00;;;;;;;0.30;0.17;;;;;;;;;;5099723;28;20016;-80
2022/04/14 01:08:27;;;;;;;44.08;11.40;;;;;;;;;;5111231;28;20031;-81
2022/04/14 01:10:54;;;;;;;0.00;0.00;;;;;;;;;;5107039;28;20024;-79
2022/04/14 01:13:23;;;;;;;0.00;0.00;;;;;;;;;;5077169;28;20048;-81
2022/04/14 01:15:50;;;;;;;7.32;2.13;;;;;;;;;;5082013;28;20150;-81
2022/04/14 01:18:16;;;;;;;0.08;0.08;;;;;;;;;;5094438;28;20028;-79
2022/04/14 01:20:43;;;;;;;0.00;0.00;;;;;;;;;;5088617;28;20479;-82
2022/04/14 01:23:11;;;;;;;1.48;1.45;;;;;;;;;;5095125;28;20493;-82
2022/04/14 01:25:38;;;;;;;1.92;1.17;;;;;;;;;;5082022;28;20408;-78
2022/04/14 01:28:05;;;;;;;2.40;2.20;;;;;;;;;;5091349;28;20028;-81
2022/04/14 01:30:31;;;;;;;4.72;3.40;;;;;;;;;;5077392;28;20060;-79
2022/04/14 01:32:58;;;;;;;0.05;0.05;;;;;;;;;;5084051;28;20089;-79
2022/04/14 01:35:25;;;;;;;0.10;0.10;;;;;;;;;;5076416;28;20277;-80
2022/04/14 01:37:51;;;;;;;0.55;0.20;;;;;;;;;;5074417;28;20071;-78
2022/04/14 01:40:18;;;;;;;0.20;0.20;;;;;;;;;;5087738;28;20055;-80
2022/04/14 01:42:44;;;;;;;2.13;1.40;;;;;;;;;;5086437;28;20031;-82
2022/04/14 01:45:11;;;;;;;1.25;0.90;;;;;;;;;;5086002;28;20023;-80
2022/04/14 01:47:41;;;;;;;3.47;2.50;;;;;;;;;;5081749;28;20025;-79
2022/04/14 01:50:09;;;;;;;0.70;0.28;;;;;;;;;;5075515;28;20474;-80
2022/04/14 01:52:36;;;;;;;0.15;0.15;;;;;;;;;;5082812;28;20028;-83
2022/04/14 01:55:02;;;;;;;7.10;3.25;;;;;;;;;;5080804;28;20066;-83
2022/04/14 01:57:29;;;;;;;25.65;3.63;;;;;;;;;;5087689;28;20036;-83
2022/04/14 01:59:57;;;;;;;0.00;0.00;;;;;;;;;;5078922;28;20048;-81
2022/04/14 02:02:23;;;;;;;6.78;1.75;;;;;;;;;;5074113;28;20032;-81
2022/04/14 02:04:52;;;;;;;0.22;0.20;;;;;;;;;;5085651;28;20063;-81
2022/04/14 02:07:21;;;;;;;1.10;1.00;;;;;;;;;;5075790;28;20025;-78
2022/04/14 02:09:47;;;;;;;1.35;1.08;;;;;;;;;;5076409;28;20020;-80
2022/04/14 02:12:14;;;;;;;0.45;0.45;;;;;;;;;;5077423;28;20499;-82
2022/04/14 02:14:40;;;;;;;0.90;0.60;;;;;;;;;;5073819;28;20043;-82
2022/04/14 02:17:07;;;;;;;9.30;3.65;;;;;;;;;;5078715;28;20151;-83
2022/04/14 02:19:33;;;;;;;2.65;0.52;;;;;;;;;;5078914;28;20024;-82
2022/04/14 02:21:59;;;;;;;6.07;2.53;;;;;;;;;;5081039;28;20025;-82
2022/04/14 02:24:26;;;;;;;3.47;1.85;;;;;;;;;;5075358;28;20028;-81
2022/04/14 02:26:53;;;;;;;1.42;0.88;;;;;;;;;;5084449;28;20047;-79
2022/04/14 02:29:19;;;;;;;1.80;1.20;;;;;;;;;;5077975;28;20146;-79
2022/04/14 02:31:46;;;;;;;2.45;2.20;;;;;;;;;;5074353;28;20035;-81
2022/04/14 02:34:12;;;;;;;0.00;0.00;;;;;;;;;;5077793;28;20067;-80
2022/04/14 02:36:38;;;;;;;5.22;1.63;;;;;;;;;;5075965;28;20059;-79
2022/04/14 02:39:05;;;;;;;9.27;3.22;;;;;;;;;;5078283;28;20020;-81
2022/04/14 02:41:31;;;;;;;15.20;5.05;;;;;;;;;;5078127;28;20135;-80
2022/04/14 02:43:58;;;;;;;1.70;1.20;;;;;;;;;;5083744;28;20024;-79
2022/04/14 02:46:24;;;;;;;0.60;0.55;;;;;;;;;;5084087;28;20112;-79
2022/04/14 02:48:50;;;;;;;6.32;2.60;;;;;;;;;;5071876;28;20526;-83
2022/04/14 02:51:17;;;;;;;1.58;1.15;;;;;;;;;;5075794;28;20051;-83
2022/04/14 02:53:44;;;;;;;0.77;0.70;;;;;;;;;;5074297;28;20483;-81
2022/04/14 02:56:10;;;;;;;3.13;1.65;;;;;;;;;;5077867;28;20020;-80
2022/04/14 02:58:37;;;;;;;4.05;2.15;;;;;;;;;;5078651;28;21096;-81
2022/04/14 03:01:04;;;;;;;5.40;2.47;;;;;;;;;;5069422;28;20474;-81
2022/04/14 03:03:33;;;;;;;7.35;2.47;;;;;;;;;;5075164;28;20366;-81
2022/04/14 03:05:59;;;;;;;1.30;0.98;;;;;;;;;;5078640;28;20028;-82
2022/04/14 03:08:25;;;;;;;6.63;2.92;;;;;;;;;;5073774;28;20042;-81
2022/04/14 03:10:54;;;;;;;10.63;3.83;;;;;;;;;;5074009;28;20024;-80
2022/04/14 03:13:20;;;;;;;15.50;3.83;;;;;;;;;;5072080;28;20410;-81
2022/04/14 03:15:49;;;;;;;15.55;4.03;;;;;;;;;;5070210;28;20035;-79
2022/04/14 03:18:16;;;;;;;5.53;2.25;;;;;;;;;;5073759;28;20028;-82
2022/04/14 03:20:42;;;;;;;3.85;2.20;;;;;;;;;;5056334;28;20028;-79
2022/04/14 03:23:14;;;;;;;3.13;1.42;;;;;;;;;;5076420;28;20016;-81
2022/04/14 03:25:40;;;;;;;4.05;1.27;;;;;;;;;;5069963;28;20299;-79
2022/04/14 03:28:09;;;;;;;2.65;2.20;;;;;;;;;;5063162;28;20101;-80
2022/04/14 03:30:35;;;;;;;4.05;1.58;;;;;;;;;;5073197;28;20504;-80
2022/04/14 03:33:02;;;;;;;2.53;2.33;;;;;;;;;;5077848;28;20384;-79
2022/04/14 03:35:28;;;;;;;4.78;3.33;;;;;;;;;;5074714;28;20028;-79
2022/04/14 03:37:57;;;;;;;7.38;2.97;;;;;;;;;;5053501;28;20268;-79
2022/04/14 03:40:26;;;;;;;1.08;0.98;;;;;;;;;;5073940;28;21206;-79
2022/04/14 03:42:53;;;;;;;5.53;2.25;;;;;;;;;;5076549;28;20047;-80
2022/04/14 03:45:19;;;;;;;0.52;0.52;;;;;;;;;;5057873;28;20036;-80
2022/04/14 03:47:46;;;;;;;3.80;1.30;;;;;;;;;;5074591;28;20035;-80
2022/04/14 03:50:12;;;;;;;3.30;2.13;;;;;;;;;;5076268;28;20334;-81
2022/04/14 03:52:38;;;;;;;1.15;0.77;;;;;;;;;;5086552;28;20154;-79
2022/04/14 03:55:06;;;;;;;1.13;1.02;;;;;;;;;;5080107;28;20017;-79
2022/04/14 03:57:35;;;;;;;1.38;1.30;;;;;;;;;;5068067;28;20028;-80
2022/04/14 04:00:05;;;;;;;4.18;2.20;;;;;;;;;;5060998;28;20036;-80
2022/04/14 04:02:46;;;;;;;;;;;;;;;;;;;;;
2022/04/14 04:05:13;;;;;;;1.75;0.65;;;;;;;;;;5081889;28;20028;-80
2022/04/14 04:07:48;;;;;;;0.63;0.30;;;;;;;;;;5073295;28;20039;-79
2022/04/14 04:10:14;;;;;;;6.93;1.65;;;;;;;;;;5074956;28;20032;-81
2022/04/14 04:12:41;;;;;;;8.45;2.50;;;;;;;;;;5085584;28;20040;-78
2022/04/14 04:15:07;;;;;;;8.95;1.60;;;;;;;;;;5095346;28;20035;-79
2022/04/14 04:17:39;;;;;;;2.20;1.02;;;;;;;;;;5098391;28;20024;-80
2022/04/14 04:20:06;;;;;;;4.57;1.95;;;;;;;;;;5079000;28;20036;-79
2022/04/14 04:22:35;;;;;;;3.58;1.27;;;;;;;;;;5087922;28;20020;-79
2022/04/14 04:25:04;;;;;;;0.85;0.60;;;;;;;;;;5099571;28;20027;-79
2022/04/14 04:27:31;;;;;;;3.97;1.95;;;;;;;;;;5093699;28;20204;-79
2022/04/14 04:29:57;;;;;;;1.40;1.10;;;;;;;;;;5096186;28;20030;-79
2022/04/14 04:32:23;;;;;;;3.63;1.27;;;;;;;;;;5100398;28;20106;-81
2022/04/14 04:34:50;;;;;;;4.05;2.08;;;;;;;;;;5099356;28;20111;-80
2022/04/14 04:37:16;;;;;;;1.73;0.80;;;;;;;;;;5097464;28;20028;-80
2022/04/14 04:39:43;;;;;;;0.30;0.10;;;;;;;;;;5106927;28;20027;-78
2022/04/14 04:42:11;;;;;;;0.60;0.30;;;;;;;;;;5103534;28;20410;-79
2022/04/14 04:44:41;;;;;;;4.47;1.50;;;;;;;;;;5108257;28;20043;-79
2022/04/14 04:47:11;;;;;;;3.17;1.00;;;;;;;;;;5099796;28;20019;-79
2022/04/14 04:49:37;;;;;;;14.40;3.78;;;;;;;;;;5095968;28;20028;-80
2022/04/14 04:52:03;;;;;;;1.80;0.95;;;;;;;;;;5077300;28;20036;-80
2022/04/14 04:54:30;;;;;;;0.00;0.00;;;;;;;;;;5080899;28;20435;-79
2022/04/14 04:56:56;;;;;;;4.70;1.00;;;;;;;;;;5095910;28;20034;-79
2022/04/14 04:59:23;;;;;;;1.85;1.75;;;;;;;;;;5083026;28;20125;-80
2022/04/14 05:01:49;;;;;;;10.77;1.60;;;;;;;;;;5083362;28;20062;-78
2022/04/14 05:04:16;;;;;;;4.85;2.33;;;;;;;;;;5097561;28;20020;-79
2022/04/14 05:06:44;;;;;;;4.00;2.53;;;;;;;;;;5070228;28;20024;-79
2022/04/14 05:09:11;;;;;;;3.33;1.63;;;;;;;;;;5098951;28;20044;-79
2022/04/14 05:11:37;;;;;;;0.43;0.43;;;;;;;;;;5092126;28;20189;-80
2022/04/14 05:14:04;;;;;;;1.95;1.05;;;;;;;;;;5094317;28;20030;-79
2022/04/14 05:16:30;;;;;;;9.52;2.63;;;;;;;;;;5082745;28;20366;-80
2022/04/14 05:18:56;;;;;;;0.28;0.28;;;;;;;;;;5096571;28;20151;-81
2022/04/14 05:21:23;;;;;;;0.40;0.40;;;;;;;;;;5109068;28;20347;-81
2022/04/14 05:23:49;;;;;;;4.07;1.95;;;;;;;;;;5100399;28;20032;-81
2022/04/14 05:26:16;;;;;;;4.25;1.55;;;;;;;;;;5093446;28;20067;-79
2022/04/14 05:28:45;;;;;;;0.43;0.30;;;;;;;;;;5076574;28;20559;-80
2022/04/14 05:31:11;;;;;;;2.20;0.90;;;;;;;;;;5096325;28;20043;-79
2022/04/14 05:33:38;;;;;;;0.15;0.13;;;;;;;;;;5079343;28;20115;-78
2022/04/14 05:36:04;;;;;;;0.00;0.00;;;;;;;;;;5101527;28;20024;-80
2022/04/14 05:38:31;;;;;;;5.70;1.27;;;;;;;;;;5097653;28;20028;-81
2022/04/14 05:40:57;;;;;;;1.35;0.30;;;;;;;;;;5083350;28;20047;-79
2022/04/14 05:43:27;;;;;;;1.80;0.60;;;;;;;;;;5094211;28;20028;-78
2022/04/14 05:45:57;;;;;;;0.40;0.35;;;;;;;;;;5090415;28;20087;-81
2022/04/14 05:48:24;;;;;;;1.55;1.35;;;;;;;;;;5095527;28;20023;-81
2022/04/14 05:50:50;;;;;;;7.57;1.00;;;;;;;;;;5090322;28;20016;-81
2022/04/14 05:53:17;;;;;;;0.38;0.38;;;;;;;;;;5096293;28;20066;-81
2022/04/14 05:55:47;;;;;;;5.95;0.88;;;;;;;;;;5097557;28;20486;-80
2022/04/14 05:58:14;;;;;;;4.88;2.35;;;;;;;;;;5099808;28;20040;-80
2022/04/14 06:00:41;;;;;;;9.07;1.05;;;;;;;;;;5097623;28;20500;-78
2022/04/14 06:03:07;;;;;;;4.05;0.70;;;;;;;;;;5081657;28;20120;-81
2022/04/14 06:05:42;;;;;;;5.38;1.35;;;;;;;;;;5087369;28;20475;-80
2022/04/14 06:08:08;;;;;;;0.20;0.15;;;;;;;;;;5100772;28;20023;-80
2022/04/14 06:10:35;;;;;;;7.38;1.45;;;;;;;;;;5095859;28;20463;-80
2022/04/14 06:13:02;;;;;;;5.03;1.80;;;;;;;;;;5071639;28;20425;-80
2022/04/14 06:15:29;;;;;;;1.83;0.98;;;;;;;;;;5070380;28;20411;-81
2022/04/14 06:17:55;;;;;;;2.05;1.95;;;;;;;;;;5073096;28;20036;-81
2022/04/14 06:20:29;;;;;;;1.67;0.60;;;;;;;;;;5073632;28;20029;-80
2022/04/14 06:23:05;;;;;;;3.10;1.02;;;;;;;;;;5077150;28;20024;-79
2022/04/14 06:25:32;;;;;;;2.08;0.93;;;;;;;;;;5076420;28;20020;-81
2022/04/14 06:27:58;;;;;;;3.78;1.35;;;;;;;;;;5083315;28;20032;-80
2022/04/14 06:30:25;;;;;;;2.28;0.43;;;;;;;;;;5077765;28;20029;-80
2022/04/14 06:32:55;;;;;;;10.88;1.55;;;;;;;;;;5076630;28;20028;-80
2022/04/14 06:35:25;;;;;;;1.83;1.17;;;;;;;;;;5075587;28;20754;-81
2022/04/14 06:37:54;;;;;;;4.80;0.75;;;;;;;;;;5069483;28;20036;-79
2022/04/14 06:40:21;;;;;;;2.38;0.82;;;;;;;;;;5076944;28;20478;-79
2022/04/14 06:42:48;;;;;;;4.93;1.15;;;;;;;;;;5076589;28;21291;-80
2022/04/14 06:45:17;;;;;;;3.60;0.22;;;;;;;;;;5073829;28;20039;-80
2022/04/14 06:47:44;;;;;;;0.25;0.22;;;;;;;;;;5081353;28;20029;-81
2022/04/14 06:50:11;;;;;;;5.10;2.10;;;;;;;;;;5077581;28;20033;-81
2022/04/14 06:52:39;;;;;;;3.78;2.03;;;;;;;;;;5076845;28;20035;-81
2022/04/14 06:55:05;;;;;;;3.05;1.88;;;;;;;;;;5081627;28;20351;-79
2022/04/14 06:57:34;;;;;;;2.95;0.17;;;;;;;;;;5079071;28;20394;-78
2022/04/14 07:00:00;;;;;;;0.38;0.38;;;;;;;;;;5074747;28;20043;-81
2022/04/14 07:02:27;;;;;;;1.02;0.90;;;;;;;;;;5072729;28;20029;-80
2022/04/14 07:05:01;;;;;;;1.13;1.08;;;;;;;;;;5077131;28;20084;-80
2022/04/14 07:07:27;;;;;;;2.28;0.95;;;;;;;;;;5070665;28;20395;-80
2022/04/14 07:09:54;;;;;;;4.38;1.65;;;;;;;;;;5067844;28;20382;-79
2022/04/14 07:12:20;;;;;;;0.55;0.35;;;;;;;;;;5071840;28;20499;-79
2022/04/14 07:14:46;;;;;;;2.30;2.20;;;;;;;;;;5069627;28;20044;-81
2022/04/14 07:17:16;;;;;;;0.30;0.28;;;;;;;;;;5075095;28;20337;-81
2022/04/14 07:19:43;;;;;;;5.68;1.50;;;;;;;;;;5077030;28;20383;-81
2022/04/14 07:22:10;;;;;;;2.60;1.55;;;;;;;;;;5072829;28;20487;-80
2022/04/14 07:24:36;;;;;;;0.15;0.10;;;;;;;;;;5063941;28;20052;-77
2022/04/14 07:27:03;;;;;;;0.57;0.47;;;;;;;;;;5071230;28;20060;-79
2022/04/14 07:29:29;;;;;;;17.83;1.15;;;;;;;;;;5075641;28;20028;-80
2022/04/14 07:31:55;;;;;;;1.35;0.15;;;;;;;;;;5071478;28;20091;-78
2022/04/14 07:34:22;;;;;;;4.93;1.17;;;;;;;;;;5071325;28;20604;-78
2022/04/14 07:36:53;;;;;;;0.98;0.15;;;;;;;;;;5073758;28;20028;-78
2022/04/14 07:39:19;;;;;;;0.22;0.20;;;;;;;;;;5074644;28;20093;-80
2022/04/14 07:41:45;;;;;;;8.80;1.83;;;;;;;;;;5073659;28;20032;-79
2022/04/14 07:44:15;;;;;;;3.00;2.58;;;;;;;;;;5073103;28;20044;-81
2022/04/14 07:46:41;;;;;;;3.15;1.30;;;;;;;;;;5069058;28;20035;-79
2022/04/14 07:49:11;;;;;;;9.15;1.83;;;;;;;;;;5069243;28;20027;-78
2022/04/14 07:51:37;;;;;;;6.63;3.55;;;;;;;;;;5070938;28;20039;-79
2022/04/14 07:54:07;;;;;;;0.30;0.30;;;;;;;;;;5078126;28;20119;-78
2022/04/14 07:56:34;;;;;;;0.88;0.38;;;;;;;;;;5072197;28;20517;-79
2022/04/14 07:59:00;;;;;;;2.13;1.00;;;;;;;;;;5084191;28;20028;-77
2022/04/14 08:01:28;;;;;;;0.00;0.00;;;;;;;;;;5079752;28;20048;-78
2022/04/14 08:03:55;;;;;;;0.08;0.05;;;;;;;;;;5075379;28;20028;-79
2022/04/14 08:06:23;;;;;;;0.75;0.55;;;;;;;;;;5075012;28;20023;-79
2022/04/14 08:08:50;;;;;;;1.98;0.88;;;;;;;;;;5073316;28;20013;-78
2022/04/14 08:11:16;;;;;;;10.13;1.25;;;;;;;;;;5075133;28;20514;-78
2022/04/14 08:13:42;;;;;;;3.15;1.27;;;;;;;;;;5073586;28;20074;-78
2022/04/14 08:16:09;;;;;;;2.30;1.30;;;;;;;;;;5069736;28;20087;-78
2022/04/14 08:18:39;;;;;;;1.20;0.65;;;;;;;;;;5071701;28;20029;-79
2022/04/14 08:21:06;;;;;;;0.95;0.93;;;;;;;;;;5069662;28;20028;-78
2022/04/14 08:23:38;;;;;;;0.03;0.00;;;;;;;;;;5070109;28;20037;-77
2022/04/14 08:26:09;;;;;;;3.65;1.20;;;;;;;;;;5074102;28;20060;-78
2022/04/14 08:28:40;;;;;;;16.33;1.67;;;;;;;;;;5068094;28;20044;-78
2022/04/14 08:31:07;;;;;;;6.05;5.60;;;;;;;;;;5071741;28;20084;-79
2022/04/14 08:33:34;;;;;;;2.08;1.80;;;;;;;;;;5076863;28;20028;-78
2022/04/14 08:36:00;;;;;;;0.08;0.03;;;;;;;;;;5076097;28;20058;-79
2022/04/14 08:38:27;;;;;;;8.35;1.30;;;;;;;;;;5072962;28;20159;-79
2022/04/14 08:40:58;;;;;;;0.35;0.20;;;;;;;;;;5073894;28;20028;-78
2022/04/14 08:43:32;;;;;;;0.90;0.60;;;;;;;;;;5075251;28;20392;-79
2022/04/14 08:45:59;;;;;;;3.83;0.95;;;;;;;;;;5072702;28;20029;-80
2022/04/14 08:48:27;;;;;;;1.20;0.43;;;;;;;;;;5073122;28;20107;-82
2022/04/14 08:50:54;;;;;;;4.88;1.88;;;;;;;;;;5074718;28;20431;-80
2022/04/14 08:53:24;;;;;;;5.47;0.73;;;;;;;;;;5080258;28;20032;-79
2022/04/14 08:55:51;;;;;;;4.78;1.85;;;;;;;;;;5070507;28;20763;-79
2022/04/14 08:58:26;;;;;;;1.70;0.70;;;;;;;;;;5067516;28;20499;-79
2022/04/14 09:00:56;;;;;;;4.07;1.15;;;;;;;;;;5073563;28;20028;-77
2022/04/14 09:03:25;;;;;;;1.85;0.20;;;;;;;;;;5076429;28;20020;-79
2022/04/14 09:05:51;;;;;;;0.98;0.40;;;;;;;;;;5073605;28;20949;-77
2022/04/14 09:08:18;;;;;;;1.38;1.35;;;;;;;;;;5070703;28;20032;-82
2022/04/14 09:10:44;;;;;;;4.00;1.35;;;;;;;;;;5071381;28;20383;-78
2022/04/14 09:13:14;;;;;;;0.52;0.47;;;;;;;;;;5071125;28;21655;-78
2022/04/14 09:15:40;;;;;;;0.00;0.00;;;;;;;;;;5073283;28;20028;-79
2022/04/14 09:18:10;;;;;;;0.17;0.17;;;;;;;;;;5073315;28;20038;-81
2022/04/14 09:20:37;;;;;;;3.30;0.50;;;;;;;;;;5076949;28;20178;-79
2022/04/14 09:23:25;;;;;;;0.43;0.43;;;;;;;;;;5079831;28;20167;-79
2022/04/14 09:25:55;;;;;;;5.28;1.65;;;;;;;;;;5058164;28;20024;-79
2022/04/14 09:28:22;;;;;;;1.10;0.10;;;;;;;;;;5080569;28;20367;-81
2022/04/14 09:31:02;;;;;;;8.18;2.42;;;;;;;;;;5085283;28;20207;-79
2022/04/14 09:33:29;;;;;;;2.80;1.20;;;;;;;;;;5080217;28;20032;-79
2022/04/14 09:36:05;;;;;;;4.82;0.93;;;;;;;;;;5076803;28;20036;-78
2022/04/14 09:38:49;;;;;;;0.40;0.40;;;;;;;;;;5075739;28;20064;-79
2022/04/14 09:41:34;;;;;;;1.83;1.15;;;;;;;;;;5078542;28;20479;-78
2022/04/14 09:44:02;;;;;;;0.68;0.52;;;;;;;;;;5077305;28;20150;-79
2022/04/14 09:46:29;;;;;;;0.00;0.00;;;;;;;;;;5078839;28;20024;-79
2022/04/14 09:49:07;;;;;;;0.80;0.38;;;;;;;;;;5074719;28;20029;-78
2022/04/14 09:51:35;;;;;;;6.57;2.53;;;;;;;;;;5073921;28;20027;-79
2022/04/14 09:54:14;;;;;;;2.50;1.35;;;;;;;;;;5075722;28;20050;-79
2022/04/14 09:57:01;;;;;;;0.60;0.15;;;;;;;;;;5069293;28;20987;-79
2022/04/14 09:59:28;;;;;;;1.98;0.98;;;;;;;;;;5073328;28;20036;-80
2022/04/14 10:02:13;;;;;;;0.50;0.30;;;;;;;;;;5071295;28;20020;-80
2022/04/14 10:04:49;;;;;;;0.15;0.15;;;;;;;;;;5072518;28;20044;-78
2022/04/14 10:07:21;;;;;;;3.22;0.75;;;;;;;;;;5071314;28;20035;-80
2022/04/14 10:09:52;;;;;;;0.73;0.60;;;;;;;;;;5072110;28;20086;-79
2022/04/14 10:12:20;;;;;;;3.55;0.93;;;;;;;;;;5076727;28;20055;-79
2022/04/14 10:14:58;;;;;;;0.85;0.60;;;;;;;;;;5078389;28;20048;-79
2022/04/14 10:17:28;;;;;;;2.58;1.17;;;;;;;;;;5070900;28;20119;-78
2022/04/14 10:19:55;;;;;;;1.45;0.75;;;;;;;;;;5072914;28;20111;-77
2022/04/14 10:22:22;;;;;;;1.45;0.63;;;;;;;;;;5070751;28;21309;-78
2022/04/14 10:24:48;;;;;;;0.90;0.20;;;;;;;;;;5075983;28;20646;-78
2022/04/14 10:27:17;;;;;;;0.17;0.05;;;;;;;;;;5075107;28;20440;-78
2022/04/14 10:29:44;;;;;;;0.95;0.52;;;;;;;;;;5074720;28;20395;-80
2022/04/14 10:32:12;;;;;;;0.75;0.63;;;;;;;;;;5076173;28;20371;-80
2022/04/14 10:34:38;;;;;;;3.03;0.57;;;;;;;;;;5077647;28;20155;-78
2022/04/14 10:37:08;;;;;;;1.80;1.70;;;;;;;;;;5083222;28;20027;-77
2022/04/14 10:39:38;;;;;;;0.00;0.00;;;;;;;;;;5077238;28;20051;-78
2022/04/14 10:42:06;;;;;;;0.00;0.00;;;;;;;;;;5070452;28;20132;-79
2022/04/14 10:44:51;;;;;;;2.40;1.63;;;;;;;;;;5070083;28;20028;-79
2022/04/14 10:47:34;;;;;;;0.43;0.43;;;;;;;;;;5071195;28;20034;-78
2022/04/14 10:50:01;;;;;;;0.65;0.17;;;;;;;;;;5075916;28;20073;-79
2022/04/14 10:52:28;;;;;;;0.00;0.00;;;;;;;;;;5073665;28;20042;-78
2022/04/14 10:54:58;;;;;;;13.02;2.47;;;;;;;;;;5076287;28;20032;-79
2022/04/14 10:57:42;;;;;;;13.05;0.35;;;;;;;;;;5071092;28;20032;-79
2022/04/14 11:00:45;;;;;;;0.00;0.00;;;;;;;;;;5074297;28;20024;-78
2022/04/14 11:03:12;;;;;;;0.38;0.28;;;;;;;;;;5064172;28;20071;-78
2022/04/14 11:05:42;;;;;;;0.00;0.00;;;;;;;;;;5075194;28;20410;-78
2022/04/14 11:08:24;;;;;;;0.70;0.13;;;;;;;;;;5073332;28;20127;-78
2022/04/14 11:11:03;;;;;;;0.00;0.00;;;;;;;;;;5073581;28;20556;-78
2022/04/14 11:13:48;;;;;;;1.67;0.45;;;;;;;;;;5073300;28;21269;-78
2022/04/14 11:16:33;;;;;;;0.30;0.30;;;;;;;;;;5079598;28;20032;-76
2022/04/14 11:19:18;;;;;;;136.75;8.57;;;;;;;;;;5077214;28;20126;-80
2022/04/14 11:22:02;;;;;;;0.00;0.00;;;;;;;;;;5075615;28;20518;-78
2022/04/14 11:24:40;;;;;;;12.98;4.35;;;;;;;;;;5072393;28;20036;-79
2022/04/14 11:27:11;;;;;;;1.42;1.33;;;;;;;;;;5078863;28;20039;-78
2022/04/14 11:29:38;;;;;;;0.80;0.28;;;;;;;;;;5073301;28;20031;-78
2022/04/14 11:32:05;;;;;;;0.60;0.35;;;;;;;;;;5078397;28;20048;-77
2022/04/14 11:34:34;;;;;;;0.85;0.50;;;;;;;;;;5073533;28;20827;-79
2022/04/14 11:37:01;;;;;;;3.22;1.23;;;;;;;;;;5075732;28;20064;-78
2022/04/14 11:39:28;;;;;;;1.67;1.13;;;;;;;;;;5082979;28;20055;-80
2022/04/14 11:41:55;;;;;;;1.10;1.00;;;;;;;;;;5090081;28;20032;-78
2022/04/14 11:44:31;;;;;;;0.65;0.35;;;;;;;;;;5075691;28;20020;-80
2022/04/14 11:47:01;;;;;;;0.00;0.00;;;;;;;;;;5078539;28;20114;-80
2022/04/14 11:49:28;;;;;;;0.00;0.00;;;;;;;;;;5076151;28;20115;-79
2022/04/14 11:51:56;;;;;;;1.30;0.75;;;;;;;;;;5078300;28;20028;-79
2022/04/14 11:54:22;;;;;;;0.98;0.32;;;;;;;;;;5095211;28;20342;-80
2022/04/14 11:56:54;;;;;;;1.38;1.38;;;;;;;;;;5073071;28;20024;-82
2022/04/14 11:59:33;;;;;;;1.23;1.13;;;;;;;;;;5075859;28;20435;-81
2022/04/14 12:02:18;;;;;;;0.30;0.22;;;;;;;;;;5078639;28;20491;-81
2022/04/14 12:04:48;;;;;;;0.10;0.10;;;;;;;;;;5063946;28;20027;-80
2022/04/14 12:07:15;;;;;;;0.00;0.00;;;;;;;;;;5072666;28;20108;-82
2022/04/14 12:09:42;;;;;;;0.00;0.00;;;;;;;;;;5077081;28;20033;-79
2022/04/14 12:12:13;;;;;;;0.00;0.00;;;;;;;;;;5087662;28;20528;-80
2022/04/14 12:14:43;;;;;;;1.60;1.10;;;;;;;;;;5082066;28;20036;-79
2022/04/14 12:17:10;;;;;;;0.00;0.00;;;;;;;;;;5107900;28;20026;-80
2022/04/14 12:19:55;;;;;;;3.50;3.40;;;;;;;;;;5082393;28;20036;-79
2022/04/14 12:22:23;;;;;;;0.00;0.00;;;;;;;;;;5098918;28;20028;-80
2022/04/14 12:24:49;;;;;;;1.17;1.08;;;;;;;;;;5086895;28;20028;-79
2022/04/14 12:27:22;;;;;;;0.00;0.00;;;;;;;;;;5102162;28;20097;-80
2022/04/14 12:29:51;;;;;;;0.52;0.17;;;;;;;;;;5084221;28;20026;-83
2022/04/14 12:32:20;;;;;;;2.65;1.95;;;;;;;;;;5081026;28;20404;-77
2022/04/14 12:34:47;;;;;;;10.52;4.28;;;;;;;;;;5098933;28;20035;-79
2022/04/14 12:37:15;;;;;;;5.43;1.90;;;;;;;;;;5086048;28;20019;-80
2022/04/14 12:40:14;;;;;;;2.55;1.17;;;;;;;;;;5104727;28;20065;-81
2022/04/14 12:42:41;;;;;;;0.00;0.00;;;;;;;;;;5052230;28;20051;-80
2022/04/14 12:45:14;;;;;;;0.00;0.00;;;;;;;;;;5110330;28;20439;-80
2022/04/14 12:47:41;;;;;;;0.65;0.65;;;;;;;;;;5114452;28;20102;-80
2022/04/14 12:50:07;;;;;;;1.70;0.88;;;;;;;;;;5102198;28;20394;-80
2022/04/14 12:52:34;;;;;;;0.00;0.00;;;;;;;;;;5103466;28;20019;-81
2022/04/14 12:55:00;;;;;;;2.95;1.08;;;;;;;;;;5089704;28;20044;-82
2022/04/14 12:57:28;;;;;;;3.40;0.85;;;;;;;;;;5087052;28;20483;-81
2022/04/14 13:00:11;;;;;;;1.88;0.50;;;;;;;;;;5085215;28;20055;-80
2022/04/14 13:02:38;;;;;;;0.00;0.00;;;;;;;;;;5098489;28;20498;-80
2022/04/14 13:05:27;;;;;;;0.00;0.00;;;;;;;;;;5102055;28;20024;-80
2022/04/14 13:07:57;;;;;;;8.20;0.52;;;;;;;;;;5100076;28;21286;-82
2022/04/14 13:10:24;;;;;;;0.28;0.28;;;;;;;;;;5089840;28;20028;-80
2022/04/14 13:12:51;;;;;;;4.18;1.10;;;;;;;;;;5109972;28;20047;-79
2022/04/14 13:15:18;;;;;;;0.00;0.00;;;;;;;;;;5108183;28;20121;-79
2022/04/14 13:17:45;;;;;;;0.00;0.00;;;;;;;;;;5106570;28;20030;-80
2022/04/14 13:20:18;;;;;;;0.00;0.00;;;;;;;;;;5124045;28;20047;-80
2022/04/14 13:22:47;;;;;;;0.00;0.00;;;;;;;;;;5109918;28;20671;-81
2022/04/14 13:25:14;;;;;;;0.00;0.00;;;;;;;;;;5105091;28;20020;-79
2022/04/14 13:27:41;;;;;;;0.38;0.30;;;;;;;;;;5081935;28;20029;-81
2022/04/14 13:30:08;;;;;;;6.72;1.67;;;;;;;;;;5099714;28;20028;-80
2022/04/14 13:32:34;;;;;;;17.27;3.15;;;;;;;;;;5099733;28;20101;-80
2022/04/14 13:35:01;;;;;;;8.30;1.58;;;;;;;;;;5103990;28;20530;-80
2022/04/14 13:37:28;;;;;;;0.57;0.57;;;;;;;;;;5103716;28;20040;-79
2022/04/14 13:39:54;;;;;;;2.53;2.38;;;;;;;;;;5077189;28;20081;-80
2022/04/14 13:42:21;;;;;;;0.52;0.35;;;;;;;;;;5090475;28;20417;-81
2022/04/14 13:44:50;;;;;;;0.38;0.38;;;;;;;;;;5087292;28;20024;-80
2022/04/14 13:47:18;;;;;;;0.60;0.32;;;;;;;;;;5085728;28;20031;-80
2022/04/14 13:49:45;;;;;;;0.20;0.20;;;;;;;;;;5098302;28;20046;-81
2022/04/14 13:52:11;;;;;;;0.30;0.30;;;;;;;;;;5090037;28;20381;-81
2022/04/14 13:54:37;;;;;;;0.00;0.00;;;;;;;;;;5082269;28;20024;-80
2022/04/14 13:57:04;;;;;;;3.38;0.65;;;;;;;;;;5100158;28;20106;-80
2022/04/14 13:59:30;;;;;;;1.13;1.13;;;;;;;;;;5104582;28;20502;-78
2022/04/14 14:01:57;;;;;;;0.35;0.35;;;;;;;;;;5111818;28;20034;-79
2022/04/14 14:04:24;;;;;;;0.00;0.00;;;;;;;;;;5092702;28;20046;-80
2022/04/14 14:06:51;;;;;;;0.50;0.50;;;;;;;;;;5103222;28;20024;-78
2022/04/14 14:09:18;;;;;;;0.00;0.00;;;;;;;;;;5083009;28;20546;-80
2022/04/14 14:11:44;;;;;;;0.00;0.00;;;;;;;;;;5103970;28;20036;-78
2022/04/14 14:14:11;;;;;;;0.00;0.00;;;;;;;;;;5085355;28;20054;-79
2022/04/14 14:16:37;;;;;;;0.05;0.05;;;;;;;;;;5105008;28;20032;-80
2022/04/14 14:19:03;;;;;;;0.10;0.10;;;;;;;;;;5108796;28;20038;-79
2022/04/14 14:21:30;;;;;;;28.98;17.75;;;;;;;;;;5104913;28;20027;-79
2022/04/14 14:23:56;;;;;;;0.22;0.22;;;;;;;;;;5104696;28;20031;-78
2022/04/14 14:26:23;;;;;;;0.35;0.05;;;;;;;;;;5086786;28;20465;-77
2022/04/14 14:28:49;;;;;;;0.70;0.52;;;;;;;;;;5103689;28;20080;-79
2022/04/14 14:31:17;;;;;;;0.00;0.00;;;;;;;;;;5107700;28;20466;-80
2022/04/14 14:33:44;;;;;;;1.23;1.13;;;;;;;;;;5102745;28;20043;-79
2022/04/14 14:36:11;;;;;;;2.10;2.00;;;;;;;;;;5100684;28;20054;-80
2022/04/14 14:38:37;;;;;;;2.97;2.88;;;;;;;;;;5104766;28;20074;-79
2022/04/14 14:41:03;;;;;;;2.45;2.33;;;;;;;;;;5107130;28;20510;-79
2022/04/14 14:43:31;;;;;;;17.70;2.50;;;;;;;;;;5101022;28;20375;-79
2022/04/14 14:45:57;;;;;;;2.60;2.50;;;;;;;;;;5100032;28;20483;-80
2022/04/14 14:48:23;;;;;;;2.63;1.58;;;;;;;;;;5103531;28;20034;-80
2022/04/14 14:50:51;;;;;;;1.77;0.85;;;;;;;;;;5105716;28;20035;-80
2022/04/14 14:53:17;;;;;;;0.10;0.10;;;;;;;;;;5112631;28;20486;-78